Aviation Digital Data Service (ADDS)

Output produced by METARs form (1826 UTC 06 February 2016)
found at http://aviationweather.gov/adds/metars/
 
KBTV 061738Z 0618/0718 19013G22KT P6SM VCSH BKN045 
     TEMPO 0618/0622 3SM -SHSN BKN030 
     FM062200 20011G18KT P6SM BKN035 
     FM070800 22008KT P6SM BKN045 
     FM071500 34006KT P6SM BKN035